createdAt,value
2018-02-16T00:02:08.608Z,178.73
2018-02-16T00:04:36.130Z,129.37
2018-02-16T00:07:03.641Z,172.30
2018-02-16T00:09:31.164Z,152.03
2018-02-16T00:11:59.437Z,145.97
2018-02-16T00:14:27.058Z,145.63
2018-02-16T00:16:54.611Z,109.27
2018-02-16T00:19:22.186Z,169.60
2018-02-16T00:21:49.733Z,156.63
2018-02-16T00:24:17.237Z,158.13
2018-02-16T00:26:44.765Z,130.97
2018-02-16T00:29:12.365Z,119.57
2018-02-16T00:31:39.973Z,111.57
2018-02-16T00:34:07.476Z,115.40
2018-02-16T00:36:35.002Z,86.45
2018-02-16T00:39:02.618Z,135.97
2018-02-16T00:41:30.901Z,86.17
2018-02-16T00:43:58.458Z,108.63
2018-02-16T00:46:26.023Z,139.82
2018-02-16T00:48:53.687Z,118.07
2018-02-16T00:51:21.230Z,139.33
2018-02-16T00:53:49.509Z,118.85
2018-02-16T00:56:17.025Z,143.67
2018-02-16T00:58:44.528Z,137.10
2018-02-16T01:01:12.050Z,115.07
2018-02-16T01:03:39.561Z,111.18
2018-02-16T01:06:07.097Z,90.45
2018-02-16T01:08:34.600Z,108.97
2018-02-16T01:11:02.105Z,108.43
2018-02-16T01:13:30.394Z,95.93
2018-02-16T01:15:59.405Z,89.68
2018-02-16T01:18:27.711Z,75.68
2018-02-16T01:20:56.076Z,99.90
2018-02-16T01:23:24.599Z,54.78
2018-02-16T01:25:52.369Z,105.60
2018-02-16T01:28:19.902Z,51.95
2018-02-16T01:30:47.411Z,65.55
2018-02-16T01:33:14.936Z,90.87
2018-02-16T01:35:43.269Z,66.72
2018-02-16T01:38:11.589Z,63.65
2018-02-16T01:40:39.936Z,92.30
2018-02-16T01:43:08.227Z,100.40
2018-02-16T01:45:36.505Z,71.87
2018-02-16T01:48:04.039Z,72.15
2018-02-16T01:50:31.540Z,87.43
2018-02-16T01:52:59.045Z,80.60
2018-02-16T01:55:27.384Z,79.10
2018-02-16T01:57:54.961Z,91.33
2018-02-16T02:00:22.608Z,75.12
2018-02-16T02:02:50.141Z,70.93
2018-02-16T02:05:18.429Z,88.80
2018-02-16T02:07:46.701Z,69.77
2018-02-16T02:10:14.243Z,61.80
2018-02-16T02:12:41.786Z,53.23
2018-02-16T02:15:09.324Z,70.03
2018-02-16T02:17:37.597Z,60.83
2018-02-16T02:20:05.109Z,84.10
2018-02-16T02:22:32.634Z,79.30
2018-02-16T02:25:00.133Z,99.07
2018-02-16T02:27:28.441Z,91.63
2018-02-16T02:29:56.848Z,78.63
2018-02-16T02:32:24.496Z,84.53
2018-02-16T02:34:52.058Z,65.70
2018-02-16T02:37:20.353Z,65.20
2018-02-16T02:39:48.622Z,89.00
2018-02-16T02:42:16.168Z,103.17
2018-02-16T02:44:43.683Z,96.35
2018-02-16T02:47:12.010Z,99.53
2018-02-16T02:49:39.614Z,65.47
2018-02-16T02:52:07.126Z,76.30
2018-02-16T02:54:35.411Z,103.80
2018-02-16T02:57:03.700Z,112.13
2018-02-16T02:59:32.015Z,98.50
2018-02-16T03:01:59.516Z,92.97
2018-02-16T03:04:27.085Z,103.27
2018-02-16T03:06:54.740Z,90.38
2018-02-16T03:09:23.341Z,97.63
2018-02-16T03:11:52.230Z,93.28
2018-02-16T03:14:19.764Z,102.70
2018-02-16T03:16:47.270Z,118.83
2018-02-16T03:19:14.792Z,99.45
2018-02-16T03:21:42.730Z,107.37
2018-02-16T03:24:10.273Z,96.13
2018-02-16T03:26:38.545Z,106.67
2018-02-16T03:29:06.094Z,112.15
2018-02-16T03:31:33.598Z,118.53
2018-02-16T03:34:01.097Z,79.83
2018-02-16T03:36:28.617Z,105.67
2018-02-16T03:38:56.246Z,98.97
2018-02-16T03:41:23.785Z,100.80
2018-02-16T03:43:52.079Z,74.53
2018-02-16T03:46:20.394Z,120.87
2018-02-16T03:48:47.930Z,122.22
2018-02-16T03:51:16.223Z,88.57
2018-02-16T03:53:44.493Z,104.35
2018-02-16T03:56:12.021Z,100.72
2018-02-16T03:58:39.545Z,135.03
2018-02-16T04:01:07.081Z,124.35
2018-02-16T04:03:34.593Z,128.97
2018-02-16T04:06:02.884Z,119.07
2018-02-16T04:08:30.409Z,173.20
2018-02-16T04:10:57.925Z,109.43
2018-02-16T04:13:26.208Z,148.65
2018-02-16T04:15:53.777Z,127.28
2018-02-16T04:18:21.680Z,111.10
2018-02-16T04:20:49.232Z,103.90
2018-02-16T04:23:16.781Z,115.28
2018-02-16T04:25:44.368Z,120.32
2018-02-16T04:28:11.889Z,108.28
2018-02-16T04:30:39.401Z,170.80
2018-02-16T04:33:06.925Z,145.93
2018-02-16T04:35:34.455Z,133.57
2018-02-16T04:38:01.968Z,130.40
2018-02-16T04:40:29.477Z,155.90
2018-02-16T04:42:57.765Z,120.40
2018-02-16T04:45:25.317Z,162.15
2018-02-16T04:47:52.884Z,145.35
2018-02-16T04:50:20.435Z,139.87
2018-02-16T04:52:48.010Z,114.28
2018-02-16T04:55:15.573Z,149.20
2018-02-16T04:57:43.841Z,98.67
2018-02-16T05:00:11.368Z,150.93
2018-02-16T05:02:38.888Z,165.32
2018-02-16T05:05:07.201Z,149.63
2018-02-16T05:07:34.704Z,124.95
2018-02-16T05:10:02.255Z,126.60
2018-02-16T05:12:29.774Z,142.18
2018-02-16T05:14:57.306Z,104.87
2018-02-16T05:17:24.921Z,105.97
2018-02-16T05:19:53.977Z,110.53
2018-02-16T05:22:21.563Z,102.70
2018-02-16T05:24:49.236Z,118.60
2018-02-16T05:27:16.883Z,122.50
2018-02-16T05:29:44.390Z,91.93
2018-02-16T05:32:11.918Z,112.47
2018-02-16T05:34:40.188Z,122.47
2018-02-16T05:37:07.744Z,140.12
2018-02-16T05:39:35.249Z,91.75
2018-02-16T05:42:03.539Z,126.45
2018-02-16T05:44:31.847Z,110.75
2018-02-16T05:46:59.381Z,118.72
2018-02-16T05:49:26.885Z,89.50
2018-02-16T05:51:54.420Z,112.45
2018-02-16T05:54:22.898Z,96.63
2018-02-16T05:56:50.544Z,83.72
2018-02-16T05:59:18.095Z,107.37
2018-02-16T06:01:45.697Z,139.57
2018-02-16T06:04:13.191Z,115.13
2018-02-16T06:06:40.700Z,125.37
2018-02-16T06:09:09.090Z,104.97
2018-02-16T06:11:36.618Z,122.53
2018-02-16T06:14:04.157Z,94.72
2018-02-16T06:16:31.665Z,102.60
2018-02-16T06:18:59.196Z,76.68
2018-02-16T06:21:26.765Z,108.15
2018-02-16T06:23:54.492Z,93.10
2018-02-16T06:26:22.021Z,107.90
2018-02-16T06:28:49.707Z,116.35
2018-02-16T06:31:17.443Z,119.57
2018-02-16T06:33:44.984Z,130.68
2018-02-16T06:36:12.490Z,111.50
2018-02-16T06:38:40.830Z,95.22
2018-02-16T06:41:08.368Z,80.55
2018-02-16T06:43:35.888Z,99.85
2018-02-16T06:46:03.408Z,76.25
2018-02-16T06:48:30.913Z,80.28
2018-02-16T06:50:58.427Z,80.53
2018-02-16T06:53:26.692Z,94.03
2018-02-16T06:55:54.236Z,92.47
2018-02-16T06:58:21.808Z,110.45
2018-02-16T07:00:50.174Z,115.53
2018-02-16T07:03:17.686Z,87.00
2018-02-16T07:05:45.257Z,104.37
2018-02-16T07:08:12.719Z,64.60
2018-02-16T07:10:40.265Z,78.43
2018-02-16T07:13:07.771Z,58.40
2018-02-16T07:15:36.082Z,72.60
2018-02-16T07:18:03.673Z,63.57
2018-02-16T07:20:31.989Z,54.60
2018-02-16T07:22:59.500Z,65.37
2018-02-16T07:25:27.101Z,55.87
2018-02-16T07:27:55.397Z,65.37
2018-02-16T07:30:23.718Z,51.93
2018-02-16T07:32:51.335Z,54.77
2018-02-16T07:35:18.846Z,55.40
2018-02-16T07:37:46.360Z,50.27
2018-02-16T07:40:14.626Z,61.87
2018-02-16T07:42:42.149Z,46.93
2018-02-16T07:45:10.473Z,42.40
2018-02-16T07:47:38.004Z,42.60
2018-02-16T07:50:05.501Z,33.40
2018-02-16T07:52:33.757Z,33.67
2018-02-16T07:55:01.264Z,42.37
2018-02-16T07:57:28.786Z,27.63
2018-02-16T07:59:56.316Z,32.23
2018-02-16T08:02:23.821Z,35.07
2018-02-16T08:04:51.395Z,35.53
2018-02-16T08:07:18.910Z,39.53
2018-02-16T08:09:47.216Z,32.57
2018-02-16T08:12:14.704Z,23.47
2018-02-16T08:14:42.252Z,27.43
2018-02-16T08:17:09.749Z,35.80
2018-02-16T08:19:37.280Z,39.80
2018-02-16T08:22:05.556Z,26.67
2018-02-16T08:24:33.116Z,34.47
2018-02-16T08:27:00.613Z,35.13
2018-02-16T08:29:28.868Z,40.43
2018-02-16T08:31:56.485Z,38.27
2018-02-16T08:34:23.977Z,33.27
2018-02-16T08:36:51.533Z,32.97
2018-02-16T08:39:19.073Z,37.17
2018-02-16T08:41:47.346Z,35.63
2018-02-16T08:44:14.838Z,38.23
2018-02-16T08:46:43.112Z,32.77
2018-02-16T08:49:10.603Z,30.30
2018-02-16T08:51:38.886Z,31.43
2018-02-16T08:54:07.162Z,31.43
2018-02-16T08:56:34.712Z,29.97
2018-02-16T08:59:02.272Z,40.27
2018-02-16T09:01:29.781Z,33.93
2018-02-16T09:03:57.273Z,37.47
2018-02-16T09:06:25.561Z,43.13
2018-02-16T09:08:53.860Z,32.67
2018-02-16T09:11:21.364Z,29.20
2018-02-16T09:13:48.878Z,28.20
2018-02-16T09:16:17.145Z,25.33
2018-02-16T09:18:44.660Z,24.83
2018-02-16T09:21:12.148Z,23.20
2018-02-16T09:23:39.678Z,22.90
2018-02-16T09:26:07.941Z,25.53
2018-02-16T09:28:35.457Z,27.17
2018-02-16T09:31:02.957Z,22.00
2018-02-16T09:33:30.485Z,20.63
2018-02-16T09:35:58.747Z,22.00
2018-02-16T09:38:26.247Z,24.23
2018-02-16T09:40:54.550Z,22.70
2018-02-16T09:43:22.053Z,16.60
2018-02-16T09:45:50.148Z,20.50
2018-02-16T09:48:17.639Z,17.07
2018-02-16T09:50:45.148Z,20.20
2018-02-16T09:53:12.636Z,22.60
2018-02-16T09:55:40.156Z,19.17
2018-02-16T09:58:07.649Z,16.70
2018-02-16T10:00:35.920Z,17.07
2018-02-16T10:03:03.413Z,20.80
2018-02-16T10:05:31.688Z,17.30
2018-02-16T10:07:59.986Z,22.20
2018-02-16T10:10:28.264Z,21.80
2018-02-16T10:12:56.529Z,26.23
2018-02-16T10:15:24.058Z,24.93
2018-02-16T10:17:51.545Z,20.20
2018-02-16T10:20:19.023Z,24.40
2018-02-16T10:22:46.533Z,20.47
2018-02-16T10:25:14.779Z,22.50
2018-02-16T10:27:42.279Z,25.70
2018-02-16T10:30:09.770Z,23.97
2018-02-16T10:32:38.044Z,30.73
2018-02-16T10:35:05.528Z,21.97
2018-02-16T10:37:33.834Z,19.53
2018-02-16T10:40:01.326Z,26.17
2018-02-16T10:42:28.843Z,29.93
2018-02-16T10:44:56.323Z,22.83
2018-02-16T10:47:24.584Z,34.10
2018-02-16T10:49:52.119Z,25.23
2018-02-16T10:52:19.612Z,27.67
2018-02-16T10:54:47.108Z,26.60
2018-02-16T10:57:14.597Z,18.73
2018-02-16T10:59:42.927Z,25.90
2018-02-16T11:02:16.186Z,24.20
2018-02-16T11:04:50.265Z,22.83
2018-02-16T11:07:23.518Z,30.50
2018-02-16T11:09:51.790Z,18.90
2018-02-16T11:12:19.272Z,28.07
2018-02-16T11:14:46.777Z,24.33
2018-02-16T11:17:14.265Z,15.50
2018-02-16T11:19:41.768Z,12.90
2018-02-16T11:22:09.254Z,18.73
2018-02-16T11:24:36.757Z,21.03
2018-02-16T11:27:04.243Z,19.00
2018-02-16T11:29:31.893Z,19.63
2018-02-16T11:32:00.153Z,21.80
2018-02-16T11:34:27.642Z,19.60
2018-02-16T11:36:55.920Z,17.30
2018-02-16T11:39:23.423Z,23.03
2018-02-16T11:41:50.988Z,16.50
2018-02-16T11:44:18.477Z,30.33
2018-02-16T11:46:45.981Z,15.60
2018-02-16T11:49:13.479Z,14.93
2018-02-16T11:51:41.757Z,17.10
2018-02-16T11:54:10.744Z,22.33
2018-02-16T11:56:38.245Z,17.00
2018-02-16T11:59:06.492Z,14.60
2018-02-16T12:01:33.992Z,11.70
2018-02-16T12:04:01.480Z,15.90
2018-02-16T12:06:29.755Z,19.87
2018-02-16T12:08:57.237Z,18.40
2018-02-16T12:11:25.524Z,15.17
2018-02-16T12:13:53.794Z,17.27
2018-02-16T12:16:21.285Z,19.77
2018-02-16T12:18:49.551Z,17.33
2018-02-16T12:21:17.048Z,13.33
2018-02-16T12:23:45.318Z,16.47
2018-02-16T12:26:12.811Z,15.27
2018-02-16T12:28:41.076Z,13.53
2018-02-16T12:31:08.564Z,9.37
2018-02-16T12:33:36.835Z,24.87
2018-02-16T12:36:04.320Z,11.57
2018-02-16T12:38:32.724Z,12.07
2018-02-16T12:41:00.985Z,14.93
2018-02-16T12:43:29.268Z,23.03
2018-02-16T12:45:56.764Z,19.03
2018-02-16T12:48:25.028Z,18.10
2018-02-16T12:50:52.514Z,17.93
2018-02-16T12:53:20.812Z,15.40
2018-02-16T12:55:49.083Z,14.23
2018-02-16T12:58:16.569Z,10.60
2018-02-16T13:00:44.849Z,15.07
2018-02-16T13:03:12.328Z,10.67
2018-02-16T13:05:40.608Z,12.87
2018-02-16T13:08:08.097Z,15.20
2018-02-16T13:10:36.363Z,23.47
2018-02-16T13:13:03.849Z,23.63
2018-02-16T13:15:32.121Z,18.53
2018-02-16T13:18:00.372Z,13.33
2018-02-16T13:20:27.885Z,32.70
2018-02-16T13:22:55.381Z,34.73
2018-02-16T13:25:22.897Z,18.30
2018-02-16T13:27:50.384Z,42.97
2018-02-16T13:30:18.613Z,21.43
2018-02-16T13:32:46.101Z,11.40
2018-02-16T13:35:13.593Z,21.30
2018-02-16T13:37:41.099Z,18.83
2018-02-16T13:40:09.351Z,18.27
2018-02-16T13:42:36.856Z,12.27
2018-02-16T13:45:04.355Z,10.30
2018-02-16T13:47:31.865Z,13.07
2018-02-16T13:49:59.520Z,13.73
2018-02-16T13:52:27.013Z,12.10
2018-02-16T13:54:54.513Z,10.80
2018-02-16T13:57:22.784Z,14.10
2018-02-16T13:59:50.301Z,9.43
2018-02-16T14:02:17.873Z,9.93
2018-02-16T14:04:45.356Z,6.57
2018-02-16T14:07:12.914Z,10.00
2018-02-16T14:09:40.401Z,20.33
2018-02-16T14:12:07.896Z,7.20
2018-02-16T14:14:35.398Z,8.30
2018-02-16T14:17:02.880Z,11.47
2018-02-16T14:19:31.144Z,15.10
2018-02-16T14:21:58.633Z,10.47
2018-02-16T14:24:26.905Z,15.93
2018-02-16T14:26:54.571Z,11.73
2018-02-16T14:29:22.779Z,12.50
2018-02-16T14:31:51.035Z,14.10
2018-02-16T14:34:18.546Z,13.77
2018-02-16T14:36:46.801Z,13.53
2018-02-16T14:39:14.299Z,15.43
2018-02-16T14:41:41.784Z,12.80
2018-02-16T14:44:10.072Z,14.73
2018-02-16T14:46:37.569Z,8.33
2018-02-16T14:49:05.071Z,11.33
2018-02-16T14:51:32.555Z,9.17
2018-02-16T14:54:00.170Z,16.30
2018-02-16T14:56:27.656Z,13.73
2018-02-16T14:58:55.182Z,18.10
2018-02-16T15:01:22.668Z,15.30
2018-02-16T15:03:50.922Z,10.93
2018-02-16T15:06:18.446Z,9.87
2018-02-16T15:08:45.936Z,15.30
2018-02-16T15:11:13.427Z,6.90
2018-02-16T15:13:40.912Z,11.40
2018-02-16T15:16:08.414Z,12.60
2018-02-16T15:18:36.660Z,9.17
2018-02-16T15:21:04.259Z,19.60
2018-02-16T15:23:31.743Z,18.40
2018-02-16T15:26:00.089Z,22.10
2018-02-16T15:28:27.592Z,11.67
2018-02-16T15:30:55.893Z,11.13
2018-02-16T15:33:24.152Z,13.40
2018-02-16T15:35:51.666Z,9.00
2018-02-16T15:38:19.152Z,19.53
2018-02-16T15:40:46.648Z,13.43
2018-02-16T15:43:14.152Z,13.67
2018-02-16T15:45:42.401Z,14.53
2018-02-16T15:48:09.912Z,13.03
2018-02-16T15:50:38.170Z,11.10
2018-02-16T15:53:05.681Z,27.97
2018-02-16T15:55:33.931Z,12.33
2018-02-16T15:58:01.440Z,14.30
2018-02-16T16:00:29.688Z,13.80
2018-02-16T16:02:57.210Z,15.10
2018-02-16T16:05:24.696Z,9.83
2018-02-16T16:07:52.233Z,28.03
2018-02-16T16:10:20.521Z,8.43
2018-02-16T16:12:47.987Z,13.30
2018-02-16T16:15:16.259Z,17.87
2018-02-16T16:17:43.743Z,10.13
2018-02-16T16:20:11.244Z,10.13
2018-02-16T16:22:38.732Z,10.90
2018-02-16T16:25:06.241Z,8.40
2018-02-16T16:27:33.733Z,21.17
2018-02-16T16:30:02.022Z,10.37
2018-02-16T16:32:30.271Z,17.03
2018-02-16T16:34:57.791Z,14.07
2018-02-16T16:37:26.052Z,24.90
2018-02-16T16:39:53.580Z,16.60
2018-02-16T16:42:21.077Z,14.33
2018-02-16T16:44:48.605Z,23.53
2018-02-16T16:47:16.108Z,205.23
2018-02-16T16:49:43.620Z,32.00
2018-02-16T16:52:11.880Z,19.17
2018-02-16T16:54:39.401Z,17.57
2018-02-16T16:57:06.897Z,10.57
2018-02-16T16:59:34.417Z,19.10
2018-02-16T17:02:01.913Z,14.60
2018-02-16T17:04:29.404Z,13.60
2018-02-16T17:06:57.271Z,10.47
2018-02-16T17:09:24.937Z,13.57
2018-02-16T17:11:52.494Z,10.70
2018-02-16T17:14:20.755Z,13.57
2018-02-16T17:16:48.268Z,8.50
2018-02-16T17:19:15.761Z,19.50
2018-02-16T17:21:43.272Z,12.30
2018-02-16T17:24:10.759Z,16.50
2018-02-16T17:26:39.036Z,18.27
2018-02-16T17:29:06.525Z,11.40
2018-02-16T17:31:34.816Z,11.50
2018-02-16T17:34:03.071Z,10.03
2018-02-16T17:36:30.559Z,13.33
2018-02-16T17:38:58.073Z,15.50
2018-02-16T17:41:25.561Z,9.20
2018-02-16T17:43:53.073Z,9.53
2018-02-16T17:46:20.556Z,23.03
2018-02-16T17:48:48.827Z,12.00
2018-02-16T17:51:16.322Z,12.10
2018-02-16T17:53:43.878Z,14.20
2018-02-16T17:56:11.340Z,20.40
2018-02-16T17:58:38.861Z,16.20
2018-02-16T18:01:06.351Z,13.27
2018-02-16T18:03:33.873Z,11.00
2018-02-16T18:06:02.144Z,11.87
2018-02-16T18:08:29.657Z,10.10
2018-02-16T18:10:57.161Z,14.03
2018-02-16T18:13:24.684Z,12.77
2018-02-16T18:15:52.215Z,10.93
2018-02-16T18:18:19.696Z,18.57
2018-02-16T18:20:47.212Z,13.30
2018-02-16T18:23:14.709Z,17.60
2018-02-16T18:25:42.215Z,22.30
2018-02-16T18:28:10.475Z,23.45
2018-02-16T18:30:37.979Z,19.83
2018-02-16T18:33:06.249Z,19.70
2018-02-16T18:35:33.780Z,16.10
2018-02-16T18:38:01.290Z,24.37
2018-02-16T18:40:28.806Z,13.45
2018-02-16T18:42:56.300Z,21.27
2018-02-16T18:45:23.837Z,22.70
2018-02-16T18:47:51.388Z,22.70
2018-02-16T18:50:18.892Z,18.00
2018-02-16T18:52:46.403Z,27.02
2018-02-16T18:55:14.035Z,18.02
2018-02-16T18:57:41.552Z,25.33
2018-02-16T19:00:09.052Z,23.52
2018-02-16T19:02:37.337Z,14.65
2018-02-16T19:05:04.856Z,19.15
2018-02-16T19:07:32.377Z,14.60
2018-02-16T19:10:00.651Z,23.10
2018-02-16T19:12:28.291Z,18.27
2018-02-16T19:14:55.853Z,20.40
2018-02-16T19:17:23.375Z,28.83
2018-02-16T19:19:50.872Z,20.80
2018-02-16T19:22:18.394Z,23.90
2018-02-16T19:24:46.088Z,26.90
2018-02-16T19:27:13.632Z,26.17
2018-02-16T19:29:41.125Z,31.05
2018-02-16T19:32:08.899Z,24.85
2018-02-16T19:34:36.450Z,20.73
2018-02-16T19:37:03.977Z,20.05
2018-02-16T19:39:31.485Z,21.80
2018-02-16T19:42:00.543Z,22.55
2018-02-16T19:44:28.812Z,28.02
2018-02-16T19:46:56.340Z,23.60
2018-02-16T19:49:23.841Z,25.73
2018-02-16T19:51:51.361Z,29.33
2018-02-16T19:54:18.869Z,29.00
2018-02-16T19:56:46.396Z,30.73
2018-02-16T19:59:15.195Z,30.30
2018-02-16T20:01:43.565Z,29.52
2018-02-16T20:04:11.086Z,26.90
2018-02-16T20:06:38.603Z,27.05
2018-02-16T20:09:06.102Z,31.20
2018-02-16T20:11:33.685Z,30.45
2018-02-16T20:14:02.265Z,26.87
2018-02-16T20:16:30.621Z,30.35
2018-02-16T20:18:58.294Z,30.90
2018-02-16T20:21:25.902Z,28.67
2018-02-16T20:23:54.523Z,27.58
2018-02-16T20:26:22.355Z,25.10
2018-02-16T20:28:49.957Z,27.45
2018-02-16T20:31:18.311Z,29.85
2018-02-16T20:33:45.840Z,31.25
2018-02-16T20:36:13.339Z,25.23
2018-02-16T20:38:41.045Z,26.58
2018-02-16T20:41:08.874Z,31.27
2018-02-16T20:43:36.542Z,29.63
2018-02-16T20:46:04.520Z,36.75
2018-02-16T20:48:32.090Z,40.15
2018-02-16T20:50:59.597Z,30.25
2018-02-16T20:53:27.162Z,37.45
2018-02-16T20:55:54.677Z,38.90
2018-02-16T20:58:22.973Z,39.05
2018-02-16T21:00:51.276Z,39.47
2018-02-16T21:03:18.816Z,30.98
2018-02-16T21:05:46.307Z,29.05
2018-02-16T21:08:14.574Z,30.65
2018-02-16T21:10:42.093Z,34.90
2018-02-16T21:13:09.604Z,33.95
2018-02-16T21:15:37.121Z,31.12
2018-02-16T21:18:04.622Z,48.92
2018-02-16T21:20:32.903Z,39.20
2018-02-16T21:23:00.400Z,32.47
2018-02-16T21:25:27.923Z,36.75
2018-02-16T21:27:55.425Z,36.50
2018-02-16T21:30:22.935Z,40.45
2018-02-16T21:32:50.433Z,35.42
2018-02-16T21:35:17.945Z,36.45
2018-02-16T21:37:45.440Z,46.50
2018-02-16T21:40:12.960Z,37.97
2018-02-16T21:42:40.456Z,37.50
2018-02-16T21:45:07.956Z,30.83
2018-02-16T21:47:35.477Z,39.53
2018-02-16T21:50:02.977Z,34.63
2018-02-16T21:52:30.489Z,36.38
2018-02-16T21:54:58.798Z,29.33
2018-02-16T21:57:26.348Z,27.15
2018-02-16T21:59:54.642Z,36.85
2018-02-16T22:02:22.933Z,32.47
2018-02-16T22:04:51.193Z,42.00
2018-02-16T22:07:19.504Z,29.55
2018-02-16T22:09:47.764Z,30.62
2018-02-16T22:12:15.268Z,37.00
2018-02-16T22:14:43.552Z,39.38
2018-02-16T22:17:11.825Z,33.88
2018-02-16T22:19:39.348Z,29.27
2018-02-16T22:22:06.849Z,27.58
2018-02-16T22:24:34.370Z,29.05
2018-02-16T22:27:01.870Z,31.92
2018-02-16T22:29:29.383Z,27.45
2018-02-16T22:31:56.876Z,25.75
2018-02-16T22:34:24.392Z,35.88
2018-02-16T22:36:51.883Z,30.17
2018-02-16T22:39:19.409Z,30.33
2018-02-16T22:41:47.821Z,26.27
2018-02-16T22:44:15.337Z,26.40
2018-02-16T22:46:43.631Z,30.52
2018-02-16T22:49:11.144Z,29.63
2018-02-16T22:51:38.661Z,26.10
2018-02-16T22:54:06.927Z,31.25
2018-02-16T22:56:34.441Z,34.55
2018-02-16T22:59:02.749Z,26.33
2018-02-16T23:01:31.010Z,29.33
2018-02-16T23:03:59.289Z,30.42
2018-02-16T23:06:27.568Z,22.42
2018-02-16T23:08:55.064Z,20.42
2018-02-16T23:11:23.349Z,22.70
2018-02-16T23:13:51.612Z,21.65
2018-02-16T23:16:19.132Z,29.87
2018-02-16T23:18:46.632Z,34.35
2018-02-16T23:21:14.165Z,26.12
2018-02-16T23:23:41.656Z,31.52
2018-02-16T23:26:09.157Z,33.40
2018-02-16T23:28:36.672Z,28.08
2018-02-16T23:31:04.169Z,25.37
2018-02-16T23:33:31.683Z,21.05
2018-02-16T23:35:59.185Z,27.23
2018-02-16T23:38:26.709Z,35.53
2018-02-16T23:40:54.205Z,26.73
2018-02-16T23:43:21.670Z,32.67
2018-02-16T23:45:49.174Z,27.33
2018-02-16T23:48:16.693Z,24.63
2018-02-16T23:50:44.201Z,23.75
2018-02-16T23:53:11.729Z,22.30
2018-02-16T23:55:40.002Z,27.15
2018-02-16T23:58:08.273Z,27.17
